sensor_id;sensor_type;location;lat;lon;timestamp;pressure;altitude;pressure_sealevel;temperature;humidity
35989;BME280;22064;42.672;23.282;2023-02-01T00:02:18;94723.38;;;-0.24;100.00
35989;BME280;22064;42.672;23.282;2023-02-01T00:05:02;94720.38;;;-0.28;100.00
35989;BME280;22064;42.672;23.282;2023-02-01T00:07:47;94729.41;;;-0.17;100.00
35989;BME280;22064;42.672;23.282;2023-02-01T00:10:32;94729.22;;;-0.15;100.00
35989;BME280;22064;42.672;23.282;2023-02-01T00:13:16;94751.34;;;-0.22;100.00
35989;BME280;22064;42.672;23.282;2023-02-01T00:16:11;94737.72;;;-0.15;100.00
35989;BME280;22064;42.672;23.282;2023-02-01T00:18:59;94742.38;;;-0.18;100.00
35989;BME280;22064;42.672;23.282;2023-02-01T00:21:44;94739.69;;;-0.25;100.00
35989;BME280;22064;42.672;23.282;2023-02-01T00:24:29;94736.63;;;-0.20;100.00
35989;BME280;22064;42.672;23.282;2023-02-01T00:27:14;94749.13;;;-0.26;100.00
35989;BME280;22064;42.672;23.282;2023-02-01T00:30:01;94721.16;;;-0.27;100.00
35989;BME280;22064;42.672;23.282;2023-02-01T00:32:46;94701.03;;;-0.30;100.00
35989;BME280;22064;42.672;23.282;2023-02-01T00:35:30;94735.72;;;-0.28;100.00
35989;BME280;22064;42.672;23.282;2023-02-01T00:38:14;94714.19;;;-0.33;100.00
35989;BME280;22064;42.672;23.282;2023-02-01T00:41:12;94727.44;;;-0.30;100.00
35989;BME280;22064;42.672;23.282;2023-02-01T00:43:57;94716.28;;;-0.37;100.00
35989;BME280;22064;42.672;23.282;2023-02-01T00:46:41;94734.47;;;-0.32;100.00
35989;BME280;22064;42.672;23.282;2023-02-01T00:49:25;94717.53;;;-0.33;100.00
35989;BME280;22064;42.672;23.282;2023-02-01T00:52:10;94700.72;;;-0.50;100.00
35989;BME280;22064;42.672;23.282;2023-02-01T00:54:55;94716.22;;;-0.29;100.00
35989;BME280;22064;42.672;23.282;2023-02-01T00:57:39;94704.41;;;-0.30;100.00
35989;BME280;22064;42.672;23.282;2023-02-01T01:00:23;94711.09;;;-0.29;100.00
35989;BME280;22064;42.672;23.282;2023-02-01T01:03:08;94700.16;;;-0.37;100.00
35989;BME280;22064;42.672;23.282;2023-02-01T01:06:04;94719.06;;;-0.24;100.00
35989;BME280;22064;42.672;23.282;2023-02-01T01:08:53;94719.13;;;-0.32;100.00
35989;BME280;22064;42.672;23.282;2023-02-01T01:11:38;94714.06;;;-0.40;100.00
35989;BME280;22064;42.672;23.282;2023-02-01T01:14:23;94700.16;;;-0.37;100.00
35989;BME280;22064;42.672;23.282;2023-02-01T01:17:09;94712.47;;;-0.41;100.00
35989;BME280;22064;42.672;23.282;2023-02-01T01:19:53;94696.22;;;-0.48;100.00
35989;BME280;22064;42.672;23.282;2023-02-01T01:22:37;94707.09;;;-0.46;100.00
35989;BME280;22064;42.672;23.282;2023-02-01T01:25:21;94701.38;;;-0.56;100.00
35989;BME280;22064;42.672;23.282;2023-02-01T01:28:06;94702.59;;;-0.44;100.00
35989;BME280;22064;42.672;23.282;2023-02-01T01:30:51;94691.84;;;-0.62;100.00
35989;BME280;22064;42.672;23.282;2023-02-01T01:33:35;94690.91;;;-0.61;100.00
35989;BME280;22064;42.672;23.282;2023-02-01T01:36:20;94716.63;;;-0.63;100.00
35989;BME280;22064;42.672;23.282;2023-02-01T01:39:04;94724.03;;;-0.68;100.00
35989;BME280;22064;42.672;23.282;2023-02-01T01:41:48;94716.53;;;-0.70;100.00
35989;BME280;22064;42.672;23.282;2023-02-01T01:47:53;94716.28;;;-0.83;100.00
35989;BME280;22064;42.672;23.282;2023-02-01T01:51:08;94708.00;;;-0.85;100.00
35989;BME280;22064;42.672;23.282;2023-02-01T01:54:19;94721.41;;;-0.83;100.00
35989;BME280;22064;42.672;23.282;2023-02-01T01:57:13;94715.84;;;-0.86;100.00
35989;BME280;22064;42.672;23.282;2023-02-01T02:00:05;94725.44;;;-0.88;100.00
35989;BME280;22064;42.672;23.282;2023-02-01T02:02:58;94724.66;;;-0.97;100.00
35989;BME280;22064;42.672;23.282;2023-02-01T02:05:45;94717.00;;;-0.97;100.00
35989;BME280;22064;42.672;23.282;2023-02-01T02:08:30;94714.78;;;-1.00;100.00
35989;BME280;22064;42.672;23.282;2023-02-01T02:11:16;94711.63;;;-1.02;100.00
35989;BME280;22064;42.672;23.282;2023-02-01T02:14:01;94708.09;;;-1.01;100.00
35989;BME280;22064;42.672;23.282;2023-02-01T02:29:54;94707.41;;;-0.95;100.00
35989;BME280;22064;42.672;23.282;2023-02-01T02:35:51;94722.41;;;-0.92;100.00
35989;BME280;22064;42.672;23.282;2023-02-01T02:38:58;94722.22;;;-0.90;100.00
35989;BME280;22064;42.672;23.282;2023-02-01T02:45:59;94724.78;;;-0.90;100.00
35989;BME280;22064;42.672;23.282;2023-02-01T02:49:01;94710.44;;;-0.91;100.00
35989;BME280;22064;42.672;23.282;2023-02-01T02:51:55;94716.97;;;-0.89;100.00
35989;BME280;22064;42.672;23.282;2023-02-01T02:55:04;94710.88;;;-0.88;100.00
35989;BME280;22064;42.672;23.282;2023-02-01T02:57:51;94702.88;;;-0.85;100.00
35989;BME280;22064;42.672;23.282;2023-02-01T03:00:54;94702.19;;;-0.79;100.00
35989;BME280;22064;42.672;23.282;2023-02-01T03:03:58;94719.81;;;-0.61;100.00
35989;BME280;22064;42.672;23.282;2023-02-01T03:06:53;94723.34;;;-0.62;100.00
35989;BME280;22064;42.672;23.282;2023-02-01T03:09:40;94723.81;;;-0.58;100.00
35989;BME280;22064;42.672;23.282;2023-02-01T03:12:25;94729.38;;;-0.55;100.00
35989;BME280;22064;42.672;23.282;2023-02-01T03:15:36;94722.28;;;-0.67;100.00
35989;BME280;22064;42.672;23.282;2023-02-01T03:21:45;94742.53;;;-0.66;100.00
35989;BME280;22064;42.672;23.282;2023-02-01T03:24:34;94729.72;;;-0.81;100.00
35989;BME280;22064;42.672;23.282;2023-02-01T03:27:29;94745.56;;;-0.62;100.00
35989;BME280;22064;42.672;23.282;2023-02-01T03:30:24;94743.06;;;-0.71;100.00
35989;BME280;22064;42.672;23.282;2023-02-01T03:33:18;94740.50;;;-0.71;100.00
35989;BME280;22064;42.672;23.282;2023-02-01T03:36:35;94733.13;;;-0.65;100.00
35989;BME280;22064;42.672;23.282;2023-02-01T03:42:17;94723.69;;;-0.65;100.00
35989;BME280;22064;42.672;23.282;2023-02-01T03:47:56;94725.38;;;-0.57;100.00
35989;BME280;22064;42.672;23.282;2023-02-01T03:50:47;94738.63;;;-0.54;100.00
35989;BME280;22064;42.672;23.282;2023-02-01T03:53:33;94725.69;;;-0.52;100.00
35989;BME280;22064;42.672;23.282;2023-02-01T03:56:21;94735.84;;;-0.44;100.00
35989;BME280;22064;42.672;23.282;2023-02-01T03:59:08;94712.59;;;-0.57;100.00
35989;BME280;22064;42.672;23.282;2023-02-01T04:01:53;94723.13;;;-0.52;100.00
35989;BME280;22064;42.672;23.282;2023-02-01T04:04:38;94740.59;;;-0.41;100.00
35989;BME280;22064;42.672;23.282;2023-02-01T04:07:22;94734.53;;;-0.40;100.00
35989;BME280;22064;42.672;23.282;2023-02-01T04:10:07;94717.09;;;-0.36;100.00
35989;BME280;22064;42.672;23.282;2023-02-01T04:12:52;94714.25;;;-0.41;100.00
35989;BME280;22064;42.672;23.282;2023-02-01T04:15:36;94726.97;;;-0.33;100.00
35989;BME280;22064;42.672;23.282;2023-02-01T04:18:21;94742.78;;;-0.30;100.00
35989;BME280;22064;42.672;23.282;2023-02-01T04:21:05;94731.31;;;-0.34;100.00
35989;BME280;22064;42.672;23.282;2023-02-01T04:23:49;94723.97;;;-0.37;100.00
35989;BME280;22064;42.672;23.282;2023-02-01T04:26:34;94745.72;;;-0.18;100.00
35989;BME280;22064;42.672;23.282;2023-02-01T04:29:19;94749.66;;;-0.30;100.00
35989;BME280;22064;42.672;23.282;2023-02-01T04:32:04;94721.41;;;-0.37;100.00
35989;BME280;22064;42.672;23.282;2023-02-01T04:34:48;94735.03;;;-0.21;100.00
35989;BME280;22064;42.672;23.282;2023-02-01T04:37:33;94729.44;;;-0.25;100.00
35989;BME280;22064;42.672;23.282;2023-02-01T04:40:17;94746.41;;;-0.24;100.00
35989;BME280;22064;42.672;23.282;2023-02-01T04:43:01;94742.44;;;-0.27;100.00
35989;BME280;22064;42.672;23.282;2023-02-01T04:45:48;94747.03;;;-0.22;100.00
35989;BME280;22064;42.672;23.282;2023-02-01T04:48:32;94744.00;;;-0.26;100.00
35989;BME280;22064;42.672;23.282;2023-02-01T04:51:16;94753.41;;;-0.18;100.00
35989;BME280;22064;42.672;23.282;2023-02-01T04:54:01;94752.59;;;-0.41;100.00
35989;BME280;22064;42.672;23.282;2023-02-01T04:56:45;94749.22;;;-0.19;100.00
35989;BME280;22064;42.672;23.282;2023-02-01T04:59:30;94747.22;;;-0.24;100.00
35989;BME280;22064;42.672;23.282;2023-02-01T05:02:13;94762.59;;;-0.09;100.00
35989;BME280;22064;42.672;23.282;2023-02-01T05:04:58;94767.63;;;-0.15;100.00
35989;BME280;22064;42.672;23.282;2023-02-01T05:07:42;94759.13;;;-0.16;100.00
35989;BME280;22064;42.672;23.282;2023-02-01T05:10:26;94768.31;;;-0.21;100.00
35989;BME280;22064;42.672;23.282;2023-02-01T05:13:10;94759.94;;;-0.15;100.00
35989;BME280;22064;42.672;23.282;2023-02-01T05:16:13;94780.00;;;-0.04;100.00
35989;BME280;22064;42.672;23.282;2023-02-01T05:18:58;94770.53;;;-0.18;100.00
35989;BME280;22064;42.672;23.282;2023-02-01T05:21:42;94787.69;;;-0.04;100.00
35989;BME280;22064;42.672;23.282;2023-02-01T05:24:26;94778.41;;;-0.05;100.00
35989;BME280;22064;42.672;23.282;2023-02-01T05:27:11;94777.81;;;0.08;100.00
35989;BME280;22064;42.672;23.282;2023-02-01T05:29:55;94764.22;;;0.07;100.00
35989;BME280;22064;42.672;23.282;2023-02-01T05:32:39;94773.69;;;0.07;100.00
35989;BME280;22064;42.672;23.282;2023-02-01T05:35:24;94772.50;;;0.09;100.00
35989;BME280;22064;42.672;23.282;2023-02-01T05:38:08;94771.81;;;0.15;100.00
35989;BME280;22064;42.672;23.282;2023-02-01T05:40:52;94764.50;;;0.12;100.00
35989;BME280;22064;42.672;23.282;2023-02-01T05:43:36;94773.97;;;0.27;100.00
35989;BME280;22064;42.672;23.282;2023-02-01T05:46:20;94772.47;;;0.32;100.00
35989;BME280;22064;42.672;23.282;2023-02-01T05:49:05;94789.44;;;0.33;100.00
35989;BME280;22064;42.672;23.282;2023-02-01T05:51:49;94768.16;;;0.33;100.00
35989;BME280;22064;42.672;23.282;2023-02-01T05:54:33;94775.13;;;0.39;100.00
35989;BME280;22064;42.672;23.282;2023-02-01T05:57:18;94775.16;;;0.54;100.00
35989;BME280;22064;42.672;23.282;2023-02-01T06:00:03;94780.44;;;0.52;100.00
35989;BME280;22064;42.672;23.282;2023-02-01T06:02:56;94764.19;;;0.45;100.00
35989;BME280;22064;42.672;23.282;2023-02-01T06:05:43;94762.69;;;0.51;100.00
35989;BME280;22064;42.672;23.282;2023-02-01T06:08:28;94776.81;;;0.61;100.00
35989;BME280;22064;42.672;23.282;2023-02-01T06:11:12;94784.34;;;0.63;100.00
35989;BME280;22064;42.672;23.282;2023-02-01T06:13:57;94781.69;;;0.56;100.00
35989;BME280;22064;42.672;23.282;2023-02-01T06:16:41;94769.31;;;0.60;100.00
35989;BME280;22064;42.672;23.282;2023-02-01T06:19:25;94778.88;;;0.66;100.00
35989;BME280;22064;42.672;23.282;2023-02-01T06:22:10;94769.66;;;0.72;100.00
35989;BME280;22064;42.672;23.282;2023-02-01T06:24:54;94780.00;;;0.63;100.00
35989;BME280;22064;42.672;23.282;2023-02-01T06:27:38;94790.50;;;0.68;100.00
35989;BME280;22064;42.672;23.282;2023-02-01T06:30:22;94773.81;;;0.73;100.00
35989;BME280;22064;42.672;23.282;2023-02-01T06:33:07;94783.63;;;0.69;100.00
35989;BME280;22064;42.672;23.282;2023-02-01T06:35:58;94804.06;;;0.62;100.00
35989;BME280;22064;42.672;23.282;2023-02-01T06:38:43;94789.63;;;0.76;100.00
35989;BME280;22064;42.672;23.282;2023-02-01T06:41:27;94795.03;;;0.66;100.00
35989;BME280;22064;42.672;23.282;2023-02-01T06:44:11;94794.41;;;0.64;100.00
35989;BME280;22064;42.672;23.282;2023-02-01T06:46:55;94802.72;;;0.66;100.00
35989;BME280;22064;42.672;23.282;2023-02-01T06:49:39;94796.38;;;0.62;100.00
35989;BME280;22064;42.672;23.282;2023-02-01T06:52:24;94797.31;;;0.61;100.00
35989;BME280;22064;42.672;23.282;2023-02-01T06:55:08;94814.56;;;0.67;100.00
35989;BME280;22064;42.672;23.282;2023-02-01T06:57:53;94804.59;;;0.73;100.00
35989;BME280;22064;42.672;23.282;2023-02-01T07:00:38;94823.13;;;0.75;100.00
35989;BME280;22064;42.672;23.282;2023-02-01T07:03:23;94819.78;;;0.89;100.00
35989;BME280;22064;42.672;23.282;2023-02-01T07:06:07;94833.22;;;0.91;100.00
35989;BME280;22064;42.672;23.282;2023-02-01T07:08:52;94833.38;;;0.89;100.00
35989;BME280;22064;42.672;23.282;2023-02-01T07:11:39;94844.53;;;0.97;100.00
35989;BME280;22064;42.672;23.282;2023-02-01T07:14:26;94851.34;;;0.89;100.00
35989;BME280;22064;42.672;23.282;2023-02-01T07:17:11;94820.22;;;0.78;100.00
35989;BME280;22064;42.672;23.282;2023-02-01T07:19:56;94845.34;;;0.97;100.00
35989;BME280;22064;42.672;23.282;2023-02-01T07:22:40;94847.19;;;1.03;100.00
35989;BME280;22064;42.672;23.282;2023-02-01T07:25:24;94846.28;;;0.96;100.00
35989;BME280;22064;42.672;23.282;2023-02-01T07:28:09;94853.03;;;0.97;100.00
35989;BME280;22064;42.672;23.282;2023-02-01T07:30:53;94846.72;;;1.00;100.00
35989;BME280;22064;42.672;23.282;2023-02-01T07:33:37;94842.16;;;1.10;100.00
35989;BME280;22064;42.672;23.282;2023-02-01T07:36:22;94841.09;;;1.04;100.00
35989;BME280;22064;42.672;23.282;2023-02-01T07:39:06;94836.13;;;1.18;100.00
35989;BME280;22064;42.672;23.282;2023-02-01T07:41:50;94853.00;;;1.12;100.00
35989;BME280;22064;42.672;23.282;2023-02-01T07:44:35;94848.34;;;1.15;100.00
35989;BME280;22064;42.672;23.282;2023-02-01T07:47:20;94858.25;;;1.19;100.00
35989;BME280;22064;42.672;23.282;2023-02-01T07:50:04;94853.72;;;1.21;100.00
35989;BME280;22064;42.672;23.282;2023-02-01T07:52:48;94855.22;;;1.30;100.00
35989;BME280;22064;42.672;23.282;2023-02-01T07:55:32;94864.75;;;1.36;100.00
35989;BME280;22064;42.672;23.282;2023-02-01T07:58:18;94867.44;;;1.28;100.00
35989;BME280;22064;42.672;23.282;2023-02-01T08:01:02;94864.88;;;1.28;100.00
35989;BME280;22064;42.672;23.282;2023-02-01T08:04:05;94881.72;;;1.37;100.00
35989;BME280;22064;42.672;23.282;2023-02-01T08:06:49;94879.44;;;1.42;100.00
35989;BME280;22064;42.672;23.282;2023-02-01T08:09:34;94870.94;;;1.42;100.00
35989;BME280;22064;42.672;23.282;2023-02-01T08:12:18;94870.94;;;1.56;100.00
35989;BME280;22064;42.672;23.282;2023-02-01T08:15:04;94868.88;;;1.67;100.00
35989;BME280;22064;42.672;23.282;2023-02-01T08:17:51;94873.34;;;1.79;100.00
35989;BME280;22064;42.672;23.282;2023-02-01T08:20:35;94876.09;;;1.78;100.00
35989;BME280;22064;42.672;23.282;2023-02-01T08:23:23;94859.44;;;1.74;100.00
35989;BME280;22064;42.672;23.282;2023-02-01T08:26:13;94856.13;;;1.95;100.00
35989;BME280;22064;42.672;23.282;2023-02-01T08:29:00;94873.31;;;1.94;100.00
35989;BME280;22064;42.672;23.282;2023-02-01T08:31:46;94872.50;;;1.94;100.00
35989;BME280;22064;42.672;23.282;2023-02-01T08:34:31;94879.34;;;1.87;100.00
35989;BME280;22064;42.672;23.282;2023-02-01T08:37:15;94875.44;;;1.91;100.00
35989;BME280;22064;42.672;23.282;2023-02-01T08:39:59;94896.34;;;1.88;100.00
35989;BME280;22064;42.672;23.282;2023-02-01T08:42:43;94867.53;;;1.92;100.00
35989;BME280;22064;42.672;23.282;2023-02-01T08:45:37;94871.91;;;2.13;100.00
35989;BME280;22064;42.672;23.282;2023-02-01T08:48:23;94853.50;;;2.10;100.00
35989;BME280;22064;42.672;23.282;2023-02-01T08:51:10;94864.50;;;2.25;100.00
35989;BME280;22064;42.672;23.282;2023-02-01T08:53:54;94851.88;;;2.08;100.00
35989;BME280;22064;42.672;23.282;2023-02-01T08:56:38;94864.25;;;2.20;100.00
35989;BME280;22064;42.672;23.282;2023-02-01T08:59:22;94849.94;;;2.11;100.00
35989;BME280;22064;42.672;23.282;2023-02-01T09:02:12;94859.97;;;2.05;100.00
35989;BME280;22064;42.672;23.282;2023-02-01T09:04:56;94863.63;;;2.18;100.00
35989;BME280;22064;42.672;23.282;2023-02-01T09:07:40;94871.28;;;2.33;100.00
35989;BME280;22064;42.672;23.282;2023-02-01T09:10:24;94870.38;;;2.40;100.00
35989;BME280;22064;42.672;23.282;2023-02-01T09:13:10;94851.41;;;2.41;100.00
35989;BME280;22064;42.672;23.282;2023-02-01T09:15:55;94879.72;;;2.76;100.00
35989;BME280;22064;42.672;23.282;2023-02-01T09:18:39;94874.97;;;2.73;100.00
35989;BME280;22064;42.672;23.282;2023-02-01T09:21:24;94874.97;;;3.08;100.00
35989;BME280;22064;42.672;23.282;2023-02-01T09:24:12;94873.09;;;3.23;100.00
35989;BME280;22064;42.672;23.282;2023-02-01T09:26:56;94886.72;;;3.17;100.00
35989;BME280;22064;42.672;23.282;2023-02-01T09:29:41;94865.72;;;3.13;100.00
35989;BME280;22064;42.672;23.282;2023-02-01T09:32:25;94869.16;;;3.27;100.00
35989;BME280;22064;42.672;23.282;2023-02-01T09:35:10;94885.75;;;3.18;100.00
35989;BME280;22064;42.672;23.282;2023-02-01T09:37:55;94844.72;;;3.10;100.00
35989;BME280;22064;42.672;23.282;2023-02-01T09:40:42;94877.47;;;2.94;100.00
35989;BME280;22064;42.672;23.282;2023-02-01T09:43:48;94858.91;;;2.99;100.00
35989;BME280;22064;42.672;23.282;2023-02-01T09:46:35;94838.41;;;3.12;100.00
35989;BME280;22064;42.672;23.282;2023-02-01T09:49:23;94850.81;;;3.43;100.00
35989;BME280;22064;42.672;23.282;2023-02-01T09:52:12;94843.25;;;3.35;96.79
35989;BME280;22064;42.672;23.282;2023-02-01T09:55:03;94824.25;;;3.36;94.63
35989;BME280;22064;42.672;23.282;2023-02-01T09:58:47;94808.22;;;3.34;93.66
35989;BME280;22064;42.672;23.282;2023-02-01T10:01:12;94812.19;;;3.37;93.11
35989;BME280;22064;42.672;23.282;2023-02-01T10:04:07;94802.88;;;3.42;94.07
35989;BME280;22064;42.672;23.282;2023-02-01T10:07:01;94840.59;;;3.63;88.36
35989;BME280;22064;42.672;23.282;2023-02-01T10:21:54;94805.41;;;3.90;84.01
35989;BME280;22064;42.672;23.282;2023-02-01T10:24:46;94801.19;;;3.69;87.93
35989;BME280;22064;42.672;23.282;2023-02-01T10:27:36;94812.91;;;3.92;85.04
35989;BME280;22064;42.672;23.282;2023-02-01T10:30:47;94804.38;;;3.72;83.67
35989;BME280;22064;42.672;23.282;2023-02-01T10:33:37;94802.56;;;3.59;87.03
35989;BME280;22064;42.672;23.282;2023-02-01T10:36:35;94798.59;;;3.56;90.23
35989;BME280;22064;42.672;23.282;2023-02-01T10:39:20;94776.59;;;3.54;89.07
35989;BME280;22064;42.672;23.282;2023-02-01T10:42:04;94804.53;;;3.57;85.01
35989;BME280;22064;42.672;23.282;2023-02-01T10:44:49;94767.19;;;3.26;81.77
35989;BME280;22064;42.672;23.282;2023-02-01T10:47:34;94784.56;;;3.85;82.48
35989;BME280;22064;42.672;23.282;2023-02-01T10:50:38;94789.53;;;4.20;81.33
35989;BME280;22064;42.672;23.282;2023-02-01T10:53:48;94803.44;;;4.06;78.30
35989;BME280;22064;42.672;23.282;2023-02-01T10:56:37;94789.56;;;4.13;78.55
35989;BME280;22064;42.672;23.282;2023-02-01T10:59:24;94788.75;;;4.00;76.20
35989;BME280;22064;42.672;23.282;2023-02-01T11:02:20;94788.97;;;4.18;77.68
35989;BME280;22064;42.672;23.282;2023-02-01T11:05:10;94813.16;;;4.44;73.44
35989;BME280;22064;42.672;23.282;2023-02-01T11:07:55;94800.28;;;4.30;75.57
35989;BME280;22064;42.672;23.282;2023-02-01T11:10:42;94807.22;;;4.36;74.50
35989;BME280;22064;42.672;23.282;2023-02-01T11:13:38;94791.72;;;3.90;75.60
35989;BME280;22064;42.672;23.282;2023-02-01T11:16:30;94795.50;;;4.07;77.05
35989;BME280;22064;42.672;23.282;2023-02-01T11:19:16;94774.09;;;4.00;78.14
35989;BME280;22064;42.672;23.282;2023-02-01T11:22:00;94786.19;;;4.13;77.28
35989;BME280;22064;42.672;23.282;2023-02-01T11:24:44;94771.13;;;3.97;80.98
35989;BME280;22064;42.672;23.282;2023-02-01T11:27:33;94767.16;;;3.94;79.52
35989;BME280;22064;42.672;23.282;2023-02-01T11:30:26;94772.50;;;4.06;79.05
35989;BME280;22064;42.672;23.282;2023-02-01T11:33:18;94770.13;;;3.84;77.34
35989;BME280;22064;42.672;23.282;2023-02-01T11:36:08;94781.22;;;4.05;78.98
35989;BME280;22064;42.672;23.282;2023-02-01T11:39:16;94766.34;;;3.80;81.02
35989;BME280;22064;42.672;23.282;2023-02-01T11:45:17;94751.09;;;4.32;75.84
35989;BME280;22064;42.672;23.282;2023-02-01T11:48:18;94762.19;;;4.19;75.15
35989;BME280;22064;42.672;23.282;2023-02-01T11:54:11;94780.25;;;4.19;72.22
35989;BME280;22064;42.672;23.282;2023-02-01T12:03:45;94743.72;;;4.62;72.57
35989;BME280;22064;42.672;23.282;2023-02-01T12:10:25;94735.59;;;4.52;73.45
35989;BME280;22064;42.672;23.282;2023-02-01T12:13:25;94736.63;;;4.24;75.00
35989;BME280;22064;42.672;23.282;2023-02-01T12:34:21;94709.22;;;4.50;76.10
35989;BME280;22064;42.672;23.282;2023-02-01T12:40:14;94719.09;;;4.66;76.21
35989;BME280;22064;42.672;23.282;2023-02-01T12:43:14;94717.84;;;4.82;75.73
35989;BME280;22064;42.672;23.282;2023-02-01T12:49:05;94720.78;;;4.92;72.85
35989;BME280;22064;42.672;23.282;2023-02-01T12:51:58;94719.19;;;4.98;69.36
35989;BME280;22064;42.672;23.282;2023-02-01T12:54:58;94712.69;;;4.82;69.37
35989;BME280;22064;42.672;23.282;2023-02-01T13:01:06;94742.66;;;4.83;68.16
35989;BME280;22064;42.672;23.282;2023-02-01T13:03:57;94722.75;;;4.97;67.25
35989;BME280;22064;42.672;23.282;2023-02-01T13:06:47;94707.19;;;4.65;66.48
35989;BME280;22064;42.672;23.282;2023-02-01T13:09:45;94734.78;;;4.65;64.60
35989;BME280;22064;42.672;23.282;2023-02-01T13:12:38;94728.00;;;4.63;63.74
35989;BME280;22064;42.672;23.282;2023-02-01T13:15:28;94733.53;;;4.80;63.91
35989;BME280;22064;42.672;23.282;2023-02-01T13:18:20;94718.91;;;4.68;63.43
35989;BME280;22064;42.672;23.282;2023-02-01T13:21:14;94711.31;;;4.79;61.62
35989;BME280;22064;42.672;23.282;2023-02-01T13:24:00;94734.47;;;4.99;62.02
35989;BME280;22064;42.672;23.282;2023-02-01T13:26:45;94728.31;;;5.00;61.71
35989;BME280;22064;42.672;23.282;2023-02-01T13:29:30;94722.16;;;4.95;62.41
35989;BME280;22064;42.672;23.282;2023-02-01T13:32:29;94757.69;;;4.99;60.00
35989;BME280;22064;42.672;23.282;2023-02-01T13:35:33;94720.56;;;5.00;59.49
35989;BME280;22064;42.672;23.282;2023-02-01T13:41:30;94715.22;;;5.02;59.51
35989;BME280;22064;42.672;23.282;2023-02-01T13:44:24;94707.88;;;4.92;59.79
35989;BME280;22064;42.672;23.282;2023-02-01T13:47:24;94719.63;;;4.81;58.45
35989;BME280;22064;42.672;23.282;2023-02-01T13:55:59;94720.16;;;5.03;58.48
35989;BME280;22064;42.672;23.282;2023-02-01T13:58:46;94712.41;;;5.03;59.65
35989;BME280;22064;42.672;23.282;2023-02-01T14:01:33;94728.97;;;4.89;59.66
35989;BME280;22064;42.672;23.282;2023-02-01T14:04:47;94741.19;;;5.07;60.19
35989;BME280;22064;42.672;23.282;2023-02-01T14:07:32;94729.22;;;5.19;60.50
35989;BME280;22064;42.672;23.282;2023-02-01T14:13:40;94723.44;;;5.24;59.91
35989;BME280;22064;42.672;23.282;2023-02-01T14:16:24;94724.72;;;5.08;60.99
35989;BME280;22064;42.672;23.282;2023-02-01T14:19:21;94718.00;;;4.94;60.02
35989;BME280;22064;42.672;23.282;2023-02-01T14:24:58;94723.50;;;5.10;62.01
35989;BME280;22064;42.672;23.282;2023-02-01T14:27:42;94716.97;;;5.01;62.41
35989;BME280;22064;42.672;23.282;2023-02-01T14:30:27;94719.41;;;4.96;61.47
35989;BME280;22064;42.672;23.282;2023-02-01T14:33:19;94726.94;;;4.91;62.33
35989;BME280;22064;42.672;23.282;2023-02-01T14:36:07;94705.97;;;4.81;61.81
35989;BME280;22064;42.672;23.282;2023-02-01T14:38:53;94698.75;;;4.96;61.69
35989;BME280;22064;42.672;23.282;2023-02-01T14:41:40;94711.81;;;5.01;61.81
35989;BME280;22064;42.672;23.282;2023-02-01T14:44:29;94707.31;;;4.90;61.98
35989;BME280;22064;42.672;23.282;2023-02-01T14:58:56;94713.41;;;4.31;71.05
35989;BME280;22064;42.672;23.282;2023-02-01T15:01:55;94728.09;;;4.24;73.07
35989;BME280;22064;42.672;23.282;2023-02-01T15:04:41;94715.41;;;4.15;74.01
35989;BME280;22064;42.672;23.282;2023-02-01T15:07:27;94738.00;;;4.20;73.89
35989;BME280;22064;42.672;23.282;2023-02-01T15:10:13;94718.78;;;4.16;73.95
35989;BME280;22064;42.672;23.282;2023-02-01T15:12:57;94712.25;;;4.07;74.42
35989;BME280;22064;42.672;23.282;2023-02-01T15:15:41;94700.38;;;4.06;73.43
35989;BME280;22064;42.672;23.282;2023-02-01T15:18:26;94708.28;;;4.18;72.83
35989;BME280;22064;42.672;23.282;2023-02-01T15:21:21;94698.38;;;4.14;73.94
35989;BME280;22064;42.672;23.282;2023-02-01T15:24:27;94695.19;;;4.19;73.22
35989;BME280;22064;42.672;23.282;2023-02-01T15:27:11;94676.16;;;4.33;72.59
35989;BME280;22064;42.672;23.282;2023-02-01T15:30:17;94684.06;;;4.25;72.07
35989;BME280;22064;42.672;23.282;2023-02-01T15:33:06;94680.91;;;4.23;72.27
35989;BME280;22064;42.672;23.282;2023-02-01T15:36:10;94696.00;;;4.13;72.26
35989;BME280;22064;42.672;23.282;2023-02-01T15:42:00;94691.81;;;4.25;70.40
35989;BME280;22064;42.672;23.282;2023-02-01T15:44:48;94684.28;;;4.17;68.76
35989;BME280;22064;42.672;23.282;2023-02-01T15:47:32;94690.44;;;4.16;67.38
35989;BME280;22064;42.672;23.282;2023-02-01T15:50:18;94687.25;;;4.27;66.30
35989;BME280;22064;42.672;23.282;2023-02-01T15:53:04;94691.22;;;4.36;66.91
35989;BME280;22064;42.672;23.282;2023-02-01T15:55:55;94690.03;;;4.26;67.14
35989;BME280;22064;42.672;23.282;2023-02-01T15:58:43;94693.63;;;4.18;67.26
35989;BME280;22064;42.672;23.282;2023-02-01T16:01:30;94688.84;;;4.15;67.67
35989;BME280;22064;42.672;23.282;2023-02-01T16:07:25;94707.50;;;4.24;67.78
35989;BME280;22064;42.672;23.282;2023-02-01T16:10:25;94711.44;;;4.39;66.89
35989;BME280;22064;42.672;23.282;2023-02-01T16:13:09;94718.19;;;4.34;67.31
35989;BME280;22064;42.672;23.282;2023-02-01T16:15:53;94713.44;;;4.24;67.52
35989;BME280;22064;42.672;23.282;2023-02-01T16:18:37;94737.22;;;4.20;68.47
35989;BME280;22064;42.672;23.282;2023-02-01T16:21:22;94725.72;;;4.09;69.82
35989;BME280;22064;42.672;23.282;2023-02-01T16:24:06;94723.56;;;3.99;70.29
35989;BME280;22064;42.672;23.282;2023-02-01T16:26:50;94722.38;;;4.08;70.06
35989;BME280;22064;42.672;23.282;2023-02-01T16:29:35;94718.19;;;4.07;70.38
35989;BME280;22064;42.672;23.282;2023-02-01T16:32:20;94745.56;;;4.15;71.04
35989;BME280;22064;42.672;23.282;2023-02-01T16:35:17;94751.09;;;4.12;70.46
35989;BME280;22064;42.672;23.282;2023-02-01T16:38:15;94744.56;;;4.16;70.38
35989;BME280;22064;42.672;23.282;2023-02-01T16:41:04;94743.16;;;4.07;71.02
35989;BME280;22064;42.672;23.282;2023-02-01T16:43:51;94752.09;;;3.98;73.20